Time;durP1;ratioP1;P1;durP2;ratioP2;P2;SDS_P1;SDS_P2;PMS_P1;PMS_P2;Temp;Humidity;BMP_temperature;BMP_pressure;BME280_temperature;BME280_humidity;BME280_pressure;Samples;Min_cycle;Max_cycle;Signal;HPM_P1;HPM_P2
2024/02/05 00:00:48;;;;;;;4.80;2.70;;;;;;;2.53;90.18;97905.04;107383;1253;59318;-79
2024/02/05 00:03:16;;;;;;;5.40;2.70;;;;;;;2.51;90.54;97903.89;108187;1253;72659;-79
2024/02/05 00:05:43;;;;;;;5.60;2.30;;;;;;;2.50;90.60;97900.55;108667;1254;68899;-81
2024/02/05 00:08:11;;;;;;;7.30;2.70;;;;;;;2.56;90.91;97910.19;109405;1253;71489;-85
2024/02/05 00:10:39;;;;;;;6.70;2.50;;;;;;;2.60;91.02;97908.08;108825;1253;60460;-82
2024/02/05 00:13:07;;;;;;;3.30;2.10;;;;;;;2.63;91.06;97890.60;107636;1254;59924;-79
2024/02/05 00:15:34;;;;;;;7.30;2.40;;;;;;;2.66;90.92;97878.73;107454;1253;72586;-81
2024/02/05 00:18:02;;;;;;;6.50;3.10;;;;;;;2.65;91.23;97872.08;107407;1254;68812;-80
2024/02/05 00:20:29;;;;;;;7.50;3.10;;;;;;;2.60;91.48;97877.81;107226;1255;73830;-81
2024/02/05 00:22:57;;;;;;;6.60;2.40;;;;;;;2.64;91.46;97871.06;106367;1254;60882;-80
2024/02/05 00:25:24;;;;;;;4.80;2.60;;;;;;;2.70;91.36;97857.85;106428;1254;60526;-81
2024/02/05 00:27:52;;;;;;;6.80;3.40;;;;;;;2.67;91.30;97856.45;107186;1253;72561;-80
2024/02/05 00:30:20;;;;;;;7.10;3.10;;;;;;;2.64;91.47;97860.84;109061;1254;69238;-85
2024/02/05 00:32:49;;;;;;;10.80;2.80;;;;;;;2.68;91.45;97859.20;109404;1252;71235;-83
2024/02/05 00:35:16;;;;;;;4.30;2.80;;;;;;;2.76;91.54;97847.23;109493;1254;59580;-83
2024/02/05 00:37:46;;;;;;;7.50;3.50;;;;;;;2.81;91.64;97852.38;108603;1253;60400;-81
2024/02/05 00:40:14;;;;;;;7.60;3.80;;;;;;;2.75;92.23;97857.82;107488;1253;72710;-80
2024/02/05 00:42:43;;;;;;;6.80;2.50;;;;;;;2.76;92.35;97845.73;106922;1254;68704;-80
2024/02/05 00:45:11;;;;;;;5.50;2.70;;;;;;;2.78;92.55;97836.58;106117;1259;71790;-79
2024/02/05 00:47:39;;;;;;;8.50;3.50;;;;;;;2.80;92.67;97828.88;105870;1259;60813;-80
2024/02/05 00:50:06;;;;;;;7.60;3.30;;;;;;;2.74;92.94;97828.81;105991;1254;60425;-79
2024/02/05 00:52:34;;;;;;;7.30;3.10;;;;;;;2.69;93.37;97823.92;105677;1259;73836;-81
2024/02/05 00:55:02;;;;;;;6.20;3.50;;;;;;;2.68;93.53;97821.77;106063;1254;70663;-80
2024/02/05 00:57:30;;;;;;;6.50;4.00;;;;;;;2.69;93.85;97816.23;106382;1254;72671;-81
2024/02/05 00:59:58;;;;;;;10.50;4.20;;;;;;;2.70;93.83;97810.39;105853;1259;60553;-82
2024/02/05 01:02:25;;;;;;;9.60;3.70;;;;;;;2.69;94.03;97807.61;106088;1254;60421;-82
2024/02/05 01:04:52;;;;;;;11.00;4.50;;;;;;;2.65;93.99;97812.61;106230;1258;73859;-83
2024/02/05 01:07:20;;;;;;;7.50;3.60;;;;;;;2.68;93.87;97799.33;106378;1256;68991;-83
2024/02/05 01:09:48;;;;;;;6.30;3.70;;;;;;;2.75;93.69;97800.92;106953;1257;71608;-82
2024/02/05 01:12:16;;;;;;;5.60;3.40;;;;;;;2.74;93.52;97798.75;106961;1256;60859;-81
2024/02/05 01:14:44;;;;;;;6.50;3.20;;;;;;;2.77;93.48;97785.84;108633;1253;60424;-79
2024/02/05 01:17:12;;;;;;;8.80;3.40;;;;;;;2.82;93.51;97784.56;107687;1255;71991;-81
2024/02/05 01:19:40;;;;;;;8.20;3.50;;;;;;;2.87;93.27;97780.52;106003;1259;70609;-81
2024/02/05 01:22:08;;;;;;;7.10;3.60;;;;;;;2.86;92.93;97777.27;106706;1253;71686;-83
2024/02/05 01:24:35;;;;;;;6.10;2.80;;;;;;;2.94;92.82;97771.75;107093;1254;60485;-83
2024/02/05 01:27:03;;;;;;;8.10;3.70;;;;;;;3.02;92.22;97767.72;106367;1259;60432;-83
2024/02/05 01:29:31;;;;;;;4.60;3.00;;;;;;;3.04;91.99;97767.61;106805;1254;72326;-82
2024/02/05 01:31:58;;;;;;;5.80;3.10;;;;;;;3.03;91.94;97771.09;109026;1254;68860;-81
2024/02/05 01:34:26;;;;;;;4.80;2.60;;;;;;;3.12;91.55;97756.60;108867;1253;71094;-82
2024/02/05 01:36:55;;;;;;;6.90;3.10;;;;;;;3.20;91.24;97765.73;107709;1254;60514;-80
2024/02/05 01:39:22;;;;;;;5.10;2.80;;;;;;;3.20;90.86;97761.23;107546;1258;182723;-81
2024/02/05 01:42:42;;;;;;;8.10;3.10;;;;;;;3.27;90.51;97748.31;104246;1291;601067;-77
2024/02/05 01:45:10;;;;;;;7.50;3.10;;;;;;;3.37;90.05;97751.55;105383;1267;59346;-78
2024/02/05 01:47:38;;;;;;;7.60;3.60;;;;;;;3.42;89.21;97760.72;105002;1271;59207;-78
2024/02/05 01:50:07;;;;;;;4.20;2.30;;;;;;;3.41;88.45;97757.44;105128;1273;71950;-83
2024/02/05 01:52:39;;;;;;;4.60;2.70;;;;;;;3.49;88.35;97750.61;105861;1267;69965;-83
2024/02/05 01:55:07;;;;;;;5.50;2.80;;;;;;;3.59;87.85;97751.78;108177;1267;71118;-83
2024/02/05 01:57:35;;;;;;;6.20;3.10;;;;;;;3.61;86.81;97751.61;108208;1263;59314;-84
2024/02/05 02:00:03;;;;;;;8.00;4.40;;;;;;;3.62;86.71;97742.31;107082;1271;61140;-84
2024/02/05 02:02:39;;;;;;;5.90;3.30;;;;;;;3.66;86.69;97740.65;105747;1267;71132;-85
2024/02/05 02:05:06;;;;;;;7.60;2.60;;;;;;;3.75;85.63;97740.33;106022;1266;68718;-82
2024/02/05 02:07:34;;;;;;;5.10;2.50;;;;;;;3.77;85.56;97728.90;105678;1271;72735;-83
2024/02/05 02:10:04;;;;;;;4.80;2.50;;;;;;;3.72;85.38;97726.16;105759;1267;59740;-82
2024/02/05 02:12:32;;;;;;;5.50;3.00;;;;;;;3.72;85.09;97722.27;106695;1257;59612;-83
2024/02/05 02:14:59;;;;;;;6.00;2.50;;;;;;;3.80;85.01;97714.67;107469;1260;73086;-83
2024/02/05 02:17:28;;;;;;;6.90;3.60;;;;;;;3.80;84.89;97707.92;108013;1257;68768;-85
2024/02/05 02:19:56;;;;;;;7.50;3.20;;;;;;;3.76;84.68;97702.56;107760;1257;71695;-84
2024/02/05 02:22:39;;;;;;;5.10;2.80;;;;;;;3.78;84.28;97704.52;107647;1262;59832;-83
2024/02/05 02:25:07;;;;;;;6.90;3.00;;;;;;;3.87;83.85;97705.31;108037;1257;60180;-84
2024/02/05 02:27:35;;;;;;;4.90;2.50;;;;;;;3.91;83.66;97699.84;108076;1255;72046;-84
2024/02/05 02:30:03;;;;;;;6.70;3.10;;;;;;;3.90;83.58;97703.46;107556;1256;69041;-82
2024/02/05 02:32:49;;;;;;;5.00;2.60;;;;;;;3.92;83.58;97697.07;107167;1258;71219;-83
2024/02/05 02:35:23;;;;;;;5.10;2.10;;;;;;;4.02;83.44;97704.31;109001;1256;58669;-83
2024/02/05 02:38:01;;;;;;;9.00;3.40;;;;;;;4.03;83.36;97701.65;108795;1256;58749;-83
2024/02/05 02:40:29;;;;;;;4.20;2.50;;;;;;;3.98;83.84;97703.21;108291;1260;70474;-83
2024/02/05 02:43:03;;;;;;;5.60;2.60;;;;;;;4.01;83.60;97697.80;107045;1257;69220;-82
2024/02/05 02:45:31;;;;;;;5.30;2.70;;;;;;;4.06;83.33;97688.52;106397;1261;71708;-83
2024/02/05 02:47:59;;;;;;;6.00;2.70;;;;;;;4.02;83.49;97691.54;107055;1257;59526;-81
2024/02/05 02:50:27;;;;;;;6.60;3.10;;;;;;;3.97;83.54;97697.59;105942;1258;59782;-82
2024/02/05 02:52:55;;;;;;;8.90;3.00;;;;;;;3.93;84.18;97701.83;106877;1258;73194;-82
2024/02/05 02:55:22;;;;;;;9.20;3.00;;;;;;;3.95;84.68;97701.81;105863;1260;70178;-84
2024/02/05 02:57:50;;;;;;;6.40;3.10;;;;;;;3.97;85.07;97703.58;105873;1260;72452;-82
2024/02/05 03:00:18;;;;;;;6.10;3.70;;;;;;;3.90;85.63;97696.98;105831;1261;59737;-82
2024/02/05 03:02:46;;;;;;;8.60;5.10;;;;;;;3.79;86.45;97692.50;106656;1257;59991;-79
2024/02/05 03:05:13;;;;;;;7.70;3.10;;;;;;;3.70;86.93;97701.86;106874;1260;73117;-80
2024/02/05 03:07:40;;;;;;;4.40;2.90;;;;;;;3.72;87.55;97694.41;105869;1258;69016;-81
2024/02/05 03:10:08;;;;;;;7.70;2.90;;;;;;;3.76;87.82;97690.15;106362;1258;72481;-79
2024/02/05 03:12:36;;;;;;;8.00;3.20;;;;;;;3.73;88.32;97707.84;106334;1258;58939;-80
2024/02/05 03:15:04;;;;;;;6.30;3.40;;;;;;;3.68;89.04;97741.77;106049;1253;60500;-79
2024/02/05 03:17:32;;;;;;;3.80;1.80;;;;;;;3.59;88.31;97748.77;106070;1259;71647;-79
2024/02/05 03:19:59;;;;;;;3.00;1.10;;;;;;;3.39;86.65;97724.05;105876;1259;68712;-80
2024/02/05 03:22:27;;;;;;;1.90;1.00;;;;;;;3.11;87.28;97721.65;105931;1257;72781;-77
2024/02/05 03:24:55;;;;;;;1.60;1.00;;;;;;;2.79;88.52;97713.39;106032;1259;59599;-75
2024/02/05 03:27:22;;;;;;;3.50;1.10;;;;;;;2.52;90.31;97703.53;106100;1259;59667;-75
2024/02/05 03:29:50;;;;;;;4.00;0.60;;;;;;;2.38;91.00;97695.10;107430;1254;71818;-75
2024/02/05 03:32:17;;;;;;;0.60;0.40;;;;;;;2.29;91.97;97694.39;108965;1254;69096;-76
2024/02/05 03:34:45;;;;;;;1.00;0.60;;;;;;;2.17;92.99;97698.80;107607;1254;75089;-76
2024/02/05 03:37:13;;;;;;;2.30;0.70;;;;;;;2.05;94.29;97704.94;105834;1255;59760;-77
2024/02/05 03:39:40;;;;;;;2.50;0.60;;;;;;;2.03;95.20;97707.10;105856;1260;59620;-74
2024/02/05 03:42:08;;;;;;;2.10;0.60;;;;;;;1.99;95.44;97711.67;105826;1254;71821;-76
2024/02/05 03:44:36;;;;;;;0.90;0.50;;;;;;;1.97;96.09;97718.53;105851;1257;69151;-76
2024/02/05 03:47:04;;;;;;;1.60;0.60;;;;;;;1.89;96.68;97717.61;105795;1254;72702;-77
2024/02/05 03:49:31;;;;;;;1.30;0.60;;;;;;;1.80;97.32;97717.04;105771;1254;60905;-76
2024/02/05 03:51:59;;;;;;;1.10;0.70;;;;;;;1.77;97.72;97718.66;105816;1259;59524;-77
2024/02/05 03:54:26;;;;;;;1.20;0.50;;;;;;;1.77;98.25;97733.36;105793;1254;71865;-76
2024/02/05 03:56:54;;;;;;;10.00;5.80;;;;;;;1.73;98.77;97752.77;105848;1254;68745;-76
2024/02/05 03:59:21;;;;;;;0.70;0.70;;;;;;;1.70;99.33;97758.55;105763;1253;72459;-77
2024/02/05 04:01:49;;;;;;;0.70;0.60;;;;;;;1.76;99.69;97737.89;105791;1254;61363;-75
2024/02/05 04:04:16;;;;;;;0.60;0.60;;;;;;;1.81;99.78;97725.61;105785;1257;60009;-75
2024/02/05 04:06:44;;;;;;;0.80;0.60;;;;;;;1.85;99.78;97707.91;105865;1254;73014;-76
2024/02/05 04:09:12;;;;;;;1.00;0.60;;;;;;;1.84;99.97;97703.52;105784;1254;70405;-76
2024/02/05 04:11:39;;;;;;;1.20;0.60;;;;;;;1.84;100.00;97693.70;105820;1258;71131;-74
2024/02/05 04:14:09;;;;;;;0.80;0.50;;;;;;;1.87;99.89;97683.40;105779;1259;59602;-76
2024/02/05 04:16:37;;;;;;;1.10;0.70;;;;;;;1.89;99.67;97678.69;105808;1257;60118;-75
2024/02/05 04:19:05;;;;;;;1.00;0.80;;;;;;;1.91;99.93;97679.05;105843;1260;73026;-75
2024/02/05 04:21:33;;;;;;;1.10;0.80;;;;;;;1.87;99.94;97683.83;105728;1254;68026;-77
2024/02/05 04:24:00;;;;;;;1.70;0.60;;;;;;;1.85;99.97;97679.14;105940;1259;72791;-76
2024/02/05 04:26:28;;;;;;;1.00;0.70;;;;;;;1.88;99.99;97680.75;105937;1253;61063;-78
2024/02/05 04:28:55;;;;;;;0.60;0.60;;;;;;;1.90;99.67;97673.23;107184;1253;60035;-76
2024/02/05 04:31:22;;;;;;;1.40;0.90;;;;;;;1.92;99.49;97665.67;108772;1254;71749;-78
2024/02/05 04:33:50;;;;;;;1.20;0.70;;;;;;;1.94;99.14;97665.79;107652;1253;69028;-77
2024/02/05 04:36:18;;;;;;;1.70;0.90;;;;;;;1.91;99.30;97662.98;105870;1254;71273;-77
2024/02/05 04:38:45;;;;;;;1.60;0.70;;;;;;;1.92;98.71;97662.65;106202;1254;60878;-76
2024/02/05 04:41:13;;;;;;;1.00;0.90;;;;;;;1.93;98.05;97669.20;105880;1259;59972;-78
2024/02/05 04:43:40;;;;;;;1.10;0.70;;;;;;;1.94;98.23;97673.85;105924;1253;74185;-77
2024/02/05 04:46:09;;;;;;;5.80;2.50;;;;;;;1.95;98.08;97670.76;105870;1254;68822;-78
2024/02/05 04:48:37;;;;;;;2.20;0.90;;;;;;;1.93;98.38;97670.54;105993;1257;73067;-77
2024/02/05 04:51:11;;;;;;;1.90;1.00;;;;;;;1.97;98.09;97674.23;105846;1260;61174;-78
2024/02/05 04:53:40;;;;;;;2.50;1.50;;;;;;;2.02;97.89;97679.47;105923;1258;60070;-78
2024/02/05 04:56:08;;;;;;;2.40;1.00;;;;;;;2.05;97.71;97679.14;105974;1254;73091;-79
2024/02/05 04:58:36;;;;;;;3.40;1.80;;;;;;;2.09;97.87;97676.19;105867;1260;68859;-79
2024/02/05 05:01:04;;;;;;;3.30;2.30;;;;;;;2.11;98.03;97675.45;105753;1254;71200;-78
2024/02/05 05:03:36;;;;;;;7.70;6.30;;;;;;;2.13;98.04;97665.26;105989;1255;60718;-78
2024/02/05 05:06:04;;;;;;;9.20;6.10;;;;;;;2.15;97.81;97674.09;105837;1254;59997;-78
2024/02/05 05:08:31;;;;;;;5.90;4.30;;;;;;;2.18;97.61;97677.05;106087;1253;73074;-78
2024/02/05 05:10:59;;;;;;;6.40;4.30;;;;;;;2.18;97.80;97674.81;105935;1254;69913;-79
2024/02/05 05:13:26;;;;;;;4.80;3.00;;;;;;;2.19;98.06;97676.55;105803;1254;72682;-78
2024/02/05 05:15:57;;;;;;;4.10;3.00;;;;;;;2.22;98.25;97675.55;105987;1257;60896;-77
2024/02/05 05:18:24;;;;;;;4.30;3.00;;;;;;;2.20;98.16;97671.86;105759;1256;59999;-79
2024/02/05 05:20:52;;;;;;;4.60;2.90;;;;;;;2.23;98.37;97667.99;105825;1254;73202;-77
2024/02/05 05:23:20;;;;;;;4.80;2.60;;;;;;;2.26;98.44;97669.36;105953;1259;68709;-77
2024/02/05 05:25:47;;;;;;;6.10;1.70;;;;;;;2.28;98.50;97667.86;105952;1259;71451;-78
2024/02/05 05:28:14;;;;;;;4.10;2.20;;;;;;;2.34;98.43;97666.86;106080;1254;61805;-77
2024/02/05 05:30:42;;;;;;;3.50;1.50;;;;;;;2.36;98.15;97666.83;108212;1253;60131;-76
2024/02/05 05:33:09;;;;;;;4.20;1.40;;;;;;;2.36;97.90;97669.78;109116;1253;72138;-77
2024/02/05 05:35:37;;;;;;;2.20;1.20;;;;;;;2.38;97.60;97674.33;107575;1258;69025;-77
2024/02/05 05:38:04;;;;;;;2.50;1.40;;;;;;;2.42;97.75;97670.83;106796;1253;72730;-82
2024/02/05 05:40:33;;;;;;;2.60;1.20;;;;;;;2.41;98.06;97670.66;106436;1258;60402;-79
2024/02/05 05:43:01;;;;;;;2.00;1.00;;;;;;;2.43;98.12;97665.52;105987;1256;59712;-78
2024/02/05 05:45:29;;;;;;;2.10;1.00;;;;;;;2.46;97.78;97664.23;105946;1253;70926;-78
2024/02/05 05:47:57;;;;;;;2.10;1.10;;;;;;;2.46;97.90;97666.11;105801;1253;71333;-78
2024/02/05 05:50:24;;;;;;;1.70;1.10;;;;;;;2.45;97.43;97656.75;105823;1252;72524;-79
2024/02/05 05:52:52;;;;;;;2.00;1.60;;;;;;;2.46;97.51;97645.52;105902;1253;61680;-80
2024/02/05 05:55:20;;;;;;;2.30;1.40;;;;;;;2.46;97.11;97642.58;105737;1260;60364;-80
2024/02/05 05:57:48;;;;;;;3.30;1.80;;;;;;;2.43;96.51;97638.64;106361;1254;73787;-78
2024/02/05 06:00:21;;;;;;;2.50;1.30;;;;;;;2.40;96.76;97633.91;108066;1257;71937;-78
2024/02/05 06:02:49;;;;;;;3.20;1.70;;;;;;;2.40;96.72;97632.36;108492;1259;72507;-84
2024/02/05 06:05:17;;;;;;;2.40;1.60;;;;;;;2.44;96.54;97634.52;108893;1253;60385;-84
2024/02/05 06:07:44;;;;;;;2.20;1.40;;;;;;;2.48;96.13;97639.40;107709;1253;60623;-86
2024/02/05 06:10:13;;;;;;;3.70;1.80;;;;;;;2.50;96.31;97632.13;107331;1253;72913;-87
2024/02/05 06:12:43;;;;;;;3.60;2.00;;;;;;;2.51;96.57;97622.02;107159;1253;70294;-87
2024/02/05 06:15:14;;;;;;;2.50;1.50;;;;;;;2.53;96.07;97623.45;107601;1252;71506;-86
2024/02/05 06:17:42;;;;;;;2.60;1.20;;;;;;;2.52;95.99;97611.65;106756;1257;60489;-87
2024/02/05 06:20:10;;;;;;;1.80;1.10;;;;;;;2.50;95.26;97605.20;106530;1253;60452;-88
2024/02/05 06:22:43;;;;;;;2.40;1.40;;;;;;;2.48;95.19;97603.74;106529;1253;73115;-88
2024/02/05 06:25:11;;;;;;;2.50;1.50;;;;;;;2.46;95.38;97617.19;107554;1253;69946;-88
2024/02/05 06:27:39;;;;;;;2.60;1.40;;;;;;;2.46;95.23;97620.05;108115;1254;71254;-84
2024/02/05 06:30:08;;;;;;;2.10;1.20;;;;;;;2.46;95.56;97618.71;108031;1253;60756;-86
2024/02/05 06:32:35;;;;;;;2.50;1.10;;;;;;;2.48;95.38;97622.52;109304;1252;58734;-87
2024/02/05 06:35:03;;;;;;;1.90;1.00;;;;;;;2.46;94.84;97627.30;109393;1253;72411;-84
2024/02/05 06:37:31;;;;;;;1.40;1.10;;;;;;;2.47;94.52;97625.69;107825;1256;69122;-83
2024/02/05 06:39:58;;;;;;;1.70;1.00;;;;;;;2.48;94.70;97620.13;106509;1258;71135;-86
2024/02/05 06:42:26;;;;;;;1.40;0.90;;;;;;;2.48;94.88;97628.52;106758;1254;60415;-86
2024/02/05 06:44:54;;;;;;;1.60;0.90;;;;;;;2.49;94.99;97622.64;106394;1253;60335;-85
2024/02/05 06:47:21;;;;;;;1.70;1.10;;;;;;;2.50;95.29;97613.80;106908;1253;73094;-86
2024/02/05 06:49:49;;;;;;;2.80;1.40;;;;;;;2.54;95.29;97617.18;106276;1253;69720;-85
2024/02/05 06:52:16;;;;;;;2.90;1.30;;;;;;;2.53;94.97;97609.58;107112;1253;72051;-85
2024/02/05 06:54:44;;;;;;;1.80;0.90;;;;;;;2.45;94.76;97605.77;107659;1254;60520;-85
2024/02/05 06:57:11;;;;;;;3.30;1.50;;;;;;;2.42;95.00;97602.81;106582;1254;60335;-85
2024/02/05 06:59:39;;;;;;;3.50;1.30;;;;;;;2.44;94.94;97597.70;106192;1253;72484;-85
2024/02/05 07:02:09;;;;;;;2.30;1.00;;;;;;;2.43;94.97;97595.89;106487;1258;69160;-85
2024/02/05 07:04:37;;;;;;;1.30;0.90;;;;;;;2.40;94.89;97597.94;108859;1253;72682;-86
2024/02/05 07:07:05;;;;;;;1.90;1.20;;;;;;;2.33;95.03;97603.79;108534;1253;60399;-83
2024/02/05 07:09:35;;;;;;;2.60;1.10;;;;;;;2.29;95.13;97607.17;107271;1253;60389;-85
2024/02/05 07:12:03;;;;;;;2.60;1.30;;;;;;;2.31;95.65;97603.34;106357;1259;73023;-85
2024/02/05 07:14:30;;;;;;;2.80;1.60;;;;;;;2.32;95.77;97603.56;106438;1253;70379;-86
2024/02/05 07:16:58;;;;;;;3.30;1.40;;;;;;;2.25;96.16;97599.58;106085;1255;74994;-81
2024/02/05 07:19:26;;;;;;;3.10;1.70;;;;;;;2.19;96.65;97603.89;106487;1257;60426;-85
2024/02/05 07:22:15;;;;;;;2.40;1.70;;;;;;;2.20;96.72;97597.70;106981;1253;60522;-84
2024/02/05 07:24:44;;;;;;;5.70;2.20;;;;;;;2.21;96.55;97593.52;107126;1253;72645;-85
2024/02/05 07:27:13;;;;;;;4.30;1.70;;;;;;;2.24;96.40;97591.01;107138;1254;70283;-84
2024/02/05 07:29:42;;;;;;;6.80;1.80;;;;;;;2.23;96.32;97587.89;107557;1253;74886;-85
2024/02/05 07:32:10;;;;;;;4.30;1.80;;;;;;;2.18;96.34;97590.59;109376;1253;62755;-85
2024/02/05 07:34:37;;;;;;;2.80;1.80;;;;;;;2.14;96.36;97592.77;109378;1253;58718;-86
2024/02/05 07:37:12;;;;;;;4.80;1.90;;;;;;;2.12;96.10;97596.10;108962;1253;73140;-85
2024/02/05 07:39:40;;;;;;;2.80;1.90;;;;;;;2.09;96.17;97598.99;107846;1258;71758;-83
2024/02/05 07:42:07;;;;;;;2.10;1.40;;;;;;;2.09;96.47;97600.98;107715;1254;74961;-84
2024/02/05 07:44:35;;;;;;;3.30;2.10;;;;;;;2.09;96.45;97606.79;107615;1253;60467;-83
2024/02/05 07:47:03;;;;;;;2.40;1.70;;;;;;;2.00;96.54;97600.52;107032;1253;61419;-85
2024/02/05 07:49:30;;;;;;;5.40;2.70;;;;;;;1.89;96.85;97590.15;107913;1253;73302;-81
2024/02/05 07:51:59;;;;;;;3.30;2.00;;;;;;;1.83;96.99;97584.36;107470;1253;68987;-82
2024/02/05 07:54:28;;;;;;;4.20;2.60;;;;;;;1.80;97.20;97582.14;107954;1254;73227;-81
2024/02/05 07:57:02;;;;;;;2.60;1.70;;;;;;;1.75;97.27;97579.69;107836;1262;61378;-81
2024/02/05 07:59:41;;;;;;;3.70;2.10;;;;;;;1.64;97.25;97579.41;108718;1253;60900;-84
2024/02/05 08:03:17;;;;;;;3.60;2.40;;;;;;;1.58;97.21;97571.55;108487;1259;73521;31
2024/02/05 08:09:04;;;;;;;5.20;2.80;;;;;;;1.49;97.48;97566.52;107855;1267;72249;-86
2024/02/05 08:11:50;;;;;;;5.50;2.50;;;;;;;1.41;97.75;97569.03;107996;1267;59726;-84
2024/02/05 08:14:52;;;;;;;4.80;2.90;;;;;;;1.34;97.63;97563.48;108037;1269;59974;-82
2024/02/05 08:17:48;;;;;;;3.70;2.10;;;;;;;1.33;97.39;97568.97;107945;1267;73146;-83
2024/02/05 08:20:21;;;;;;;6.60;2.70;;;;;;;1.29;97.56;97558.11;107928;1273;69478;-86
2024/02/05 08:26:37;;;;;;;5.90;3.40;;;;;;;1.33;98.43;97566.98;107568;1267;60614;-88
2024/02/05 08:32:35;;;;;;;5.40;3.80;;;;;;;1.37;98.86;97564.13;107976;1273;74521;-85
2024/02/05 08:35:03;;;;;;;5.60;3.20;;;;;;;1.39;99.13;97561.67;107864;1274;68805;-86
2024/02/05 08:37:31;;;;;;;4.60;2.50;;;;;;;1.40;98.99;97556.58;106680;1273;71547;-86
2024/02/05 08:39:59;;;;;;;4.40;2.30;;;;;;;1.40;98.91;97554.65;106325;1274;60589;-85
2024/02/05 08:42:26;;;;;;;3.90;2.10;;;;;;;1.41;99.00;97551.73;105651;1275;60614;-85
2024/02/05 08:45:00;;;;;;;3.30;1.80;;;;;;;1.36;99.72;97551.21;105157;1276;76299;-86
2024/02/05 08:47:31;;;;;;;2.40;1.80;;;;;;;1.32;99.94;97552.00;104914;1278;69109;-87
2024/02/05 08:50:00;;;;;;;2.90;1.80;;;;;;;1.32;99.95;97548.11;107314;1273;71609;-84
2024/02/05 08:52:32;;;;;;;4.00;2.60;;;;;;;1.35;100.00;97549.91;107676;1273;62106;-86
2024/02/05 08:59:24;;;;;;;2.20;1.60;;;;;;;1.45;100.00;97551.17;107605;1269;72994;31
2024/02/05 09:02:09;;;;;;;2.20;1.50;;;;;;;1.48;100.00;97542.61;107290;1276;69118;-85
2024/02/05 09:04:40;;;;;;;1.70;1.00;;;;;;;1.51;100.00;97541.53;107302;1275;70547;-80
2024/02/05 09:07:09;;;;;;;3.30;1.80;;;;;;;1.53;100.00;97543.27;107288;1275;61838;-80
2024/02/05 09:09:50;;;;;;;1.90;1.30;;;;;;;1.50;100.00;97536.14;107634;1276;61110;-85
2024/02/05 09:12:21;;;;;;;1.90;1.50;;;;;;;1.50;100.00;97524.91;107488;1267;73182;-78
2024/02/05 09:14:50;;;;;;;1.90;1.30;;;;;;;1.56;100.00;97513.33;106349;1273;70993;-81
2024/02/05 09:17:19;;;;;;;2.20;1.30;;;;;;;1.60;100.00;97512.15;105535;1276;74841;-81
2024/02/05 09:19:57;;;;;;;2.10;1.40;;;;;;;1.66;100.00;97525.10;106094;1273;61983;-79
2024/02/05 09:22:32;;;;;;;2.50;1.50;;;;;;;1.70;100.00;97525.54;107104;1280;61546;-80
2024/02/05 09:25:25;;;;;;;3.10;1.80;;;;;;;1.69;100.00;97525.66;106521;1273;71708;-82
2024/02/05 09:28:01;;;;;;;2.70;1.80;;;;;;;1.74;100.00;97528.31;106718;1274;71030;-81
2024/02/05 09:30:53;;;;;;;2.80;2.00;;;;;;;1.79;100.00;97526.38;107307;1273;71530;-80
2024/02/05 09:33:45;;;;;;;4.30;1.70;;;;;;;1.77;100.00;97525.01;107027;1273;60536;-80
2024/02/05 09:36:12;;;;;;;3.60;2.30;;;;;;;1.76;100.00;97527.84;106883;1273;60543;-80
2024/02/05 09:38:40;;;;;;;5.90;2.60;;;;;;;1.75;100.00;97531.63;105536;1276;72714;-81
2024/02/05 09:41:10;;;;;;;3.50;1.80;;;;;;;1.74;100.00;97530.52;105913;1273;71669;-80
2024/02/05 09:43:37;;;;;;;4.30;2.40;;;;;;;1.72;100.00;97523.08;107591;1273;71707;-82
2024/02/05 09:46:12;;;;;;;1.60;1.40;;;;;;;1.70;100.00;97517.89;106860;1276;60618;-82
2024/02/05 09:48:40;;;;;;;2.50;1.60;;;;;;;1.68;100.00;97511.45;105000;1279;60604;-82
2024/02/05 09:51:10;;;;;;;2.40;1.80;;;;;;;1.68;100.00;97513.27;105095;1280;76209;-82
2024/02/05 09:53:39;;;;;;;2.60;1.50;;;;;;;1.66;100.00;97503.85;104833;1273;70344;-81
2024/02/05 09:56:07;;;;;;;2.70;1.70;;;;;;;1.66;100.00;97493.36;104715;1280;71603;-80
2024/02/05 09:58:35;;;;;;;3.10;2.00;;;;;;;1.69;100.00;97494.26;105411;1279;63943;-81
2024/02/05 10:01:02;;;;;;;2.70;2.40;;;;;;;1.65;100.00;97511.09;106469;1276;61052;-81
2024/02/05 10:03:31;;;;;;;3.10;2.40;;;;;;;1.61;100.00;97508.87;105030;1274;75153;-81
2024/02/05 10:06:03;;;;;;;3.10;2.10;;;;;;;1.65;100.00;97501.14;107402;1275;72709;-90
2024/02/05 10:08:33;;;;;;;3.00;2.20;;;;;;;1.70;100.00;97503.92;107604;1272;73723;-84
2024/02/05 10:11:01;;;;;;;2.90;2.20;;;;;;;1.72;100.00;97507.70;107806;1280;60795;-86
2024/02/05 10:13:31;;;;;;;3.30;2.40;;;;;;;1.72;100.00;97500.52;108056;1272;58886;-90
2024/02/05 10:15:59;;;;;;;3.20;2.30;;;;;;;1.74;100.00;97490.91;106908;1273;72616;-86
2024/02/05 10:18:27;;;;;;;2.50;1.80;;;;;;;1.77;100.00;97487.77;105812;1273;69242;-87
2024/02/05 10:20:55;;;;;;;7.30;2.40;;;;;;;1.81;100.00;97476.41;106514;1273;72377;-85
2024/02/05 10:23:23;;;;;;;2.30;2.10;;;;;;;1.85;100.00;97478.23;106224;1273;62674;-82
2024/02/05 10:25:57;;;;;;;3.10;2.30;;;;;;;1.90;100.00;97466.36;105337;1273;62054;-83
2024/02/05 10:28:27;;;;;;;3.00;1.80;;;;;;;1.91;100.00;97456.41;106335;1273;73473;-78
2024/02/05 10:31:07;;;;;;;2.90;1.50;;;;;;;1.90;99.87;97474.41;106806;1273;71653;-77
2024/02/05 10:33:35;;;;;;;4.60;1.90;;;;;;;1.88;99.54;97460.25;106637;1273;71587;-77
2024/02/05 10:36:05;;;;;;;3.90;2.50;;;;;;;1.91;99.81;97463.84;105387;1274;63127;-79
2024/02/05 10:38:36;;;;;;;3.30;2.30;;;;;;;1.97;100.00;97468.87;106697;1273;59411;-85
2024/02/05 10:41:05;;;;;;;4.10;2.50;;;;;;;2.02;100.00;97466.38;105580;1273;72935;-80
2024/02/05 10:43:33;;;;;;;2.70;1.40;;;;;;;2.05;99.32;97473.97;105603;1273;69755;-83
2024/02/05 10:46:05;;;;;;;3.80;1.90;;;;;;;2.03;98.54;97463.14;105857;1273;72700;-84
2024/02/05 10:48:33;;;;;;;2.30;1.70;;;;;;;1.99;98.35;97442.43;106154;1273;60545;-84
2024/02/05 10:51:05;;;;;;;2.80;1.60;;;;;;;1.95;97.71;97416.52;106228;1273;62200;-84
2024/02/05 10:53:33;;;;;;;2.30;1.60;;;;;;;1.93;98.09;97400.72;105354;1279;73420;-84
2024/02/05 10:56:01;;;;;;;2.60;1.90;;;;;;;1.93;98.23;97404.26;106133;1273;71402;-82
2024/02/05 10:58:28;;;;;;;2.60;1.50;;;;;;;1.91;98.85;97403.16;107594;1273;71973;-82
2024/02/05 11:00:59;;;;;;;2.80;2.00;;;;;;;1.88;98.42;97403.66;105370;1276;60549;-83
2024/02/05 11:03:27;;;;;;;4.10;1.60;;;;;;;1.89;98.96;97404.70;104937;1279;62396;-82
2024/02/05 11:05:55;;;;;;;2.20;1.30;;;;;;;1.93;99.24;97407.86;105024;1273;73298;-83
2024/02/05 11:08:23;;;;;;;2.00;1.40;;;;;;;1.96;99.57;97398.41;105168;1281;69266;-83
2024/02/05 11:10:55;;;;;;;4.90;1.70;;;;;;;2.04;99.48;97400.70;105015;1273;74782;-83
2024/02/05 11:13:24;;;;;;;1.50;1.10;;;;;;;2.13;99.29;97401.45;105024;1274;60879;-82
2024/02/05 11:15:52;;;;;;;2.60;1.70;;;;;;;2.25;97.66;97400.09;104883;1273;61226;-82
2024/02/05 11:18:23;;;;;;;2.30;1.60;;;;;;;2.65;98.41;97392.61;104687;1279;76191;-81
2024/02/05 11:20:51;;;;;;;2.20;1.50;;;;;;;3.04;98.19;97402.09;104655;1273;69117;-80
2024/02/05 11:23:19;;;;;;;2.10;1.50;;;;;;;3.23;95.12;97401.65;106119;1276;72861;-80
2024/02/05 11:25:47;;;;;;;2.40;1.90;;;;;;;3.27;93.99;97403.14;105289;1279;60578;-81
2024/02/05 11:28:15;;;;;;;3.80;2.10;;;;;;;3.25;93.95;97405.39;105909;1273;60500;-78
2024/02/05 11:30:43;;;;;;;2.90;1.80;;;;;;;3.22;93.25;97399.09;106867;1272;72895;-77
2024/02/05 11:33:11;;;;;;;2.90;1.90;;;;;;;3.19;92.66;97405.38;107254;1272;71458;-78
2024/02/05 11:35:48;;;;;;;2.90;1.60;;;;;;;3.18;93.04;97408.91;105873;1273;73962;-81
2024/02/05 11:38:20;;;;;;;2.60;1.90;;;;;;;3.18;92.71;97406.70;105172;1273;60544;-80
2024/02/05 11:40:49;;;;;;;1.70;1.20;;;;;;;3.12;92.50;97402.26;105148;1273;60593;-82
2024/02/05 11:43:24;;;;;;;4.80;1.50;;;;;;;2.97;92.63;97401.48;104420;1274;73760;-80
2024/02/05 11:45:52;;;;;;;2.60;1.50;;;;;;;2.88;92.97;97406.06;104435;1273;70843;-81
2024/02/05 11:48:20;;;;;;;2.60;1.60;;;;;;;2.87;92.79;97408.48;104504;1273;73994;-84
2024/02/05 11:50:48;;;;;;;1.90;1.40;;;;;;;2.87;92.90;97416.92;104727;1273;63986;-82
2024/02/05 11:53:17;;;;;;;2.20;1.40;;;;;;;2.86;93.14;97414.66;104725;1279;60714;-83
2024/02/05 11:55:44;;;;;;;2.80;1.40;;;;;;;2.88;92.76;97422.81;106323;1273;73469;-83
2024/02/05 11:58:12;;;;;;;2.00;1.40;;;;;;;2.90;92.46;97419.16;105454;1279;68990;-79